sensor_id;sensor_type;location;lat;lon;timestamp;temperature;humidity
64062;DHT22;50308;47.438;-1.528;2023-12-14T00:00:22;10.80;99.90
64062;DHT22;50308;47.438;-1.528;2023-12-14T00:02:47;10.80;99.90
64062;DHT22;50308;47.438;-1.528;2023-12-14T00:05:13;10.80;99.90
64062;DHT22;50308;47.438;-1.528;2023-12-14T00:07:39;10.80;99.90
64062;DHT22;50308;47.438;-1.528;2023-12-14T00:10:05;10.70;99.90
64062;DHT22;50308;47.438;-1.528;2023-12-14T00:12:31;10.80;99.90
64062;DHT22;50308;47.438;-1.528;2023-12-14T00:14:57;10.70;99.90
64062;DHT22;50308;47.438;-1.528;2023-12-14T00:17:22;10.70;99.90
64062;DHT22;50308;47.438;-1.528;2023-12-14T00:19:48;10.70;99.90
64062;DHT22;50308;47.438;-1.528;2023-12-14T00:22:14;10.70;99.90
64062;DHT22;50308;47.438;-1.528;2023-12-14T00:24:40;10.70;99.90
64062;DHT22;50308;47.438;-1.528;2023-12-14T00:27:05;10.70;99.90
64062;DHT22;50308;47.438;-1.528;2023-12-14T00:29:31;10.70;99.90
64062;DHT22;50308;47.438;-1.528;2023-12-14T00:31:57;10.70;99.90
64062;DHT22;50308;47.438;-1.528;2023-12-14T00:34:22;10.70;99.90
64062;DHT22;50308;47.438;-1.528;2023-12-14T00:36:48;10.70;99.90
64062;DHT22;50308;47.438;-1.528;2023-12-14T00:39:13;10.60;99.90
64062;DHT22;50308;47.438;-1.528;2023-12-14T00:41:39;10.70;99.90
64062;DHT22;50308;47.438;-1.528;2023-12-14T00:44:05;10.70;99.90
64062;DHT22;50308;47.438;-1.528;2023-12-14T00:46:30;10.70;99.90
64062;DHT22;50308;47.438;-1.528;2023-12-14T00:48:56;10.70;99.90
64062;DHT22;50308;47.438;-1.528;2023-12-14T00:51:22;10.70;99.90
64062;DHT22;50308;47.438;-1.528;2023-12-14T00:53:47;10.70;99.90
64062;DHT22;50308;47.438;-1.528;2023-12-14T00:56:13;10.60;99.90
64062;DHT22;50308;47.438;-1.528;2023-12-14T00:58:39;10.60;99.90
64062;DHT22;50308;47.438;-1.528;2023-12-14T01:01:05;10.60;99.90
64062;DHT22;50308;47.438;-1.528;2023-12-14T01:03:30;10.60;99.90
64062;DHT22;50308;47.438;-1.528;2023-12-14T01:05:56;10.60;99.90
64062;DHT22;50308;47.438;-1.528;2023-12-14T01:08:22;10.60;99.90
64062;DHT22;50308;47.438;-1.528;2023-12-14T01:10:47;10.60;99.90
64062;DHT22;50308;47.438;-1.528;2023-12-14T01:13:13;10.50;99.90
64062;DHT22;50308;47.438;-1.528;2023-12-14T01:15:38;10.50;99.90
64062;DHT22;50308;47.438;-1.528;2023-12-14T01:18:04;10.50;99.90
64062;DHT22;50308;47.438;-1.528;2023-12-14T01:20:30;10.60;99.90
64062;DHT22;50308;47.438;-1.528;2023-12-14T01:22:56;10.50;99.90
64062;DHT22;50308;47.438;-1.528;2023-12-14T01:25:21;10.60;99.90
64062;DHT22;50308;47.438;-1.528;2023-12-14T01:27:47;10.50;99.90
64062;DHT22;50308;47.438;-1.528;2023-12-14T01:30:13;10.60;99.90
64062;DHT22;50308;47.438;-1.528;2023-12-14T01:32:38;10.60;99.90
64062;DHT22;50308;47.438;-1.528;2023-12-14T01:35:04;10.60;99.90
64062;DHT22;50308;47.438;-1.528;2023-12-14T01:37:30;10.60;99.90
64062;DHT22;50308;47.438;-1.528;2023-12-14T01:39:56;10.60;99.90
64062;DHT22;50308;47.438;-1.528;2023-12-14T01:42:21;10.50;99.90
64062;DHT22;50308;47.438;-1.528;2023-12-14T01:44:47;10.50;99.90
64062;DHT22;50308;47.438;-1.528;2023-12-14T01:47:13;10.60;99.90
64062;DHT22;50308;47.438;-1.528;2023-12-14T01:49:38;10.60;99.90
64062;DHT22;50308;47.438;-1.528;2023-12-14T01:52:06;10.50;99.90
64062;DHT22;50308;47.438;-1.528;2023-12-14T01:54:32;10.50;99.90
64062;DHT22;50308;47.438;-1.528;2023-12-14T01:56:59;10.50;99.90
64062;DHT22;50308;47.438;-1.528;2023-12-14T01:59:24;10.50;99.90
64062;DHT22;50308;47.438;-1.528;2023-12-14T02:01:54;10.50;99.90
64062;DHT22;50308;47.438;-1.528;2023-12-14T02:04:23;10.50;99.90
64062;DHT22;50308;47.438;-1.528;2023-12-14T02:06:49;10.50;99.90
64062;DHT22;50308;47.438;-1.528;2023-12-14T02:09:14;10.50;99.90
64062;DHT22;50308;47.438;-1.528;2023-12-14T02:11:40;10.50;99.90
64062;DHT22;50308;47.438;-1.528;2023-12-14T02:14:09;10.50;99.90
64062;DHT22;50308;47.438;-1.528;2023-12-14T02:16:35;10.50;99.90
64062;DHT22;50308;47.438;-1.528;2023-12-14T02:19:00;10.50;99.90
64062;DHT22;50308;47.438;-1.528;2023-12-14T02:21:26;10.50;99.90
64062;DHT22;50308;47.438;-1.528;2023-12-14T02:23:52;10.50;99.90
64062;DHT22;50308;47.438;-1.528;2023-12-14T02:26:17;10.50;99.90
64062;DHT22;50308;47.438;-1.528;2023-12-14T02:28:43;10.50;99.90
64062;DHT22;50308;47.438;-1.528;2023-12-14T02:31:09;10.40;99.90
64062;DHT22;50308;47.438;-1.528;2023-12-14T02:33:34;10.40;99.90
64062;DHT22;50308;47.438;-1.528;2023-12-14T02:36:00;10.40;99.90
64062;DHT22;50308;47.438;-1.528;2023-12-14T02:38:26;10.40;99.90
64062;DHT22;50308;47.438;-1.528;2023-12-14T02:40:52;10.40;99.90
64062;DHT22;50308;47.438;-1.528;2023-12-14T02:43:18;10.40;99.90
64062;DHT22;50308;47.438;-1.528;2023-12-14T02:45:45;10.40;99.90
64062;DHT22;50308;47.438;-1.528;2023-12-14T02:48:11;10.30;99.90
64062;DHT22;50308;47.438;-1.528;2023-12-14T02:50:37;10.40;99.90
64062;DHT22;50308;47.438;-1.528;2023-12-14T02:53:02;10.40;99.90
64062;DHT22;50308;47.438;-1.528;2023-12-14T02:55:28;10.40;99.90
64062;DHT22;50308;47.438;-1.528;2023-12-14T02:57:54;10.30;99.90
64062;DHT22;50308;47.438;-1.528;2023-12-14T03:00:20;10.40;99.90
64062;DHT22;50308;47.438;-1.528;2023-12-14T03:02:45;10.30;99.90
64062;DHT22;50308;47.438;-1.528;2023-12-14T03:05:11;10.30;99.90
64062;DHT22;50308;47.438;-1.528;2023-12-14T03:07:37;10.30;99.90
64062;DHT22;50308;47.438;-1.528;2023-12-14T03:10:03;10.30;99.90
64062;DHT22;50308;47.438;-1.528;2023-12-14T03:12:29;10.30;99.90
64062;DHT22;50308;47.438;-1.528;2023-12-14T03:14:55;10.30;99.90
64062;DHT22;50308;47.438;-1.528;2023-12-14T03:17:21;10.30;99.90
64062;DHT22;50308;47.438;-1.528;2023-12-14T03:19:46;10.30;99.90
64062;DHT22;50308;47.438;-1.528;2023-12-14T03:22:12;10.20;99.90
64062;DHT22;50308;47.438;-1.528;2023-12-14T03:24:38;10.30;99.90
64062;DHT22;50308;47.438;-1.528;2023-12-14T03:27:04;10.20;99.90
64062;DHT22;50308;47.438;-1.528;2023-12-14T03:29:30;10.20;99.90
64062;DHT22;50308;47.438;-1.528;2023-12-14T03:31:57;10.20;99.90
64062;DHT22;50308;47.438;-1.528;2023-12-14T03:34:23;10.20;99.90
64062;DHT22;50308;47.438;-1.528;2023-12-14T03:36:49;10.20;99.90
64062;DHT22;50308;47.438;-1.528;2023-12-14T03:39:15;10.20;99.90
64062;DHT22;50308;47.438;-1.528;2023-12-14T03:41:44;10.20;99.90
64062;DHT22;50308;47.438;-1.528;2023-12-14T03:44:10;10.10;99.90
64062;DHT22;50308;47.438;-1.528;2023-12-14T03:46:35;10.10;99.90
64062;DHT22;50308;47.438;-1.528;2023-12-14T03:49:02;10.10;99.90
64062;DHT22;50308;47.438;-1.528;2023-12-14T03:51:29;10.10;99.90
64062;DHT22;50308;47.438;-1.528;2023-12-14T03:53:54;10.10;99.90
64062;DHT22;50308;47.438;-1.528;2023-12-14T03:56:20;10.10;99.90
64062;DHT22;50308;47.438;-1.528;2023-12-14T03:58:45;10.10;99.90
64062;DHT22;50308;47.438;-1.528;2023-12-14T04:01:18;10.20;99.90
64062;DHT22;50308;47.438;-1.528;2023-12-14T04:03:45;10.20;99.90
64062;DHT22;50308;47.438;-1.528;2023-12-14T04:06:11;10.20;99.90
64062;DHT22;50308;47.438;-1.528;2023-12-14T04:08:37;10.10;99.90
64062;DHT22;50308;47.438;-1.528;2023-12-14T04:11:03;10.10;99.90
64062;DHT22;50308;47.438;-1.528;2023-12-14T04:13:28;10.10;99.90
64062;DHT22;50308;47.438;-1.528;2023-12-14T04:15:54;10.10;99.90
64062;DHT22;50308;47.438;-1.528;2023-12-14T04:18:20;10.10;99.90
64062;DHT22;50308;47.438;-1.528;2023-12-14T04:20:45;10.10;99.90
64062;DHT22;50308;47.438;-1.528;2023-12-14T04:23:11;10.10;99.90
64062;DHT22;50308;47.438;-1.528;2023-12-14T04:25:37;10.10;99.90
64062;DHT22;50308;47.438;-1.528;2023-12-14T04:28:02;10.10;99.90
64062;DHT22;50308;47.438;-1.528;2023-12-14T04:30:28;10.00;99.90
64062;DHT22;50308;47.438;-1.528;2023-12-14T04:32:54;10.00;99.90
64062;DHT22;50308;47.438;-1.528;2023-12-14T04:35:19;10.00;99.90
64062;DHT22;50308;47.438;-1.528;2023-12-14T04:37:47;10.00;99.90
64062;DHT22;50308;47.438;-1.528;2023-12-14T04:40:13;10.00;99.90
64062;DHT22;50308;47.438;-1.528;2023-12-14T04:42:39;10.00;99.90
64062;DHT22;50308;47.438;-1.528;2023-12-14T04:45:05;9.90;99.90
64062;DHT22;50308;47.438;-1.528;2023-12-14T04:47:31;9.90;99.90
64062;DHT22;50308;47.438;-1.528;2023-12-14T04:49:57;9.90;99.90
64062;DHT22;50308;47.438;-1.528;2023-12-14T04:52:22;9.80;99.90
64062;DHT22;50308;47.438;-1.528;2023-12-14T04:54:48;9.80;99.90
64062;DHT22;50308;47.438;-1.528;2023-12-14T04:57:14;9.80;99.90
64062;DHT22;50308;47.438;-1.528;2023-12-14T04:59:42;9.80;99.90
64062;DHT22;50308;47.438;-1.528;2023-12-14T05:02:08;9.70;99.90
64062;DHT22;50308;47.438;-1.528;2023-12-14T05:04:34;9.70;99.90
64062;DHT22;50308;47.438;-1.528;2023-12-14T05:06:59;9.70;99.90
64062;DHT22;50308;47.438;-1.528;2023-12-14T05:09:25;9.80;99.90
64062;DHT22;50308;47.438;-1.528;2023-12-14T05:11:51;9.80;99.90
64062;DHT22;50308;47.438;-1.528;2023-12-14T05:14:17;9.70;99.90
64062;DHT22;50308;47.438;-1.528;2023-12-14T05:16:43;9.70;99.90
64062;DHT22;50308;47.438;-1.528;2023-12-14T05:19:09;9.60;99.90
64062;DHT22;50308;47.438;-1.528;2023-12-14T05:21:35;9.60;99.90
64062;DHT22;50308;47.438;-1.528;2023-12-14T05:24:01;9.60;99.90
64062;DHT22;50308;47.438;-1.528;2023-12-14T05:26:26;9.60;99.90
64062;DHT22;50308;47.438;-1.528;2023-12-14T05:28:52;9.60;99.90
64062;DHT22;50308;47.438;-1.528;2023-12-14T05:31:18;9.60;99.90
64062;DHT22;50308;47.438;-1.528;2023-12-14T05:33:43;9.60;99.90
64062;DHT22;50308;47.438;-1.528;2023-12-14T05:36:09;9.60;99.90
64062;DHT22;50308;47.438;-1.528;2023-12-14T05:38:39;9.60;99.90
64062;DHT22;50308;47.438;-1.528;2023-12-14T05:41:06;9.60;99.90
64062;DHT22;50308;47.438;-1.528;2023-12-14T05:43:32;9.50;99.90
64062;DHT22;50308;47.438;-1.528;2023-12-14T05:45:57;9.50;99.90
64062;DHT22;50308;47.438;-1.528;2023-12-14T05:48:23;9.40;99.90
64062;DHT22;50308;47.438;-1.528;2023-12-14T05:50:51;9.40;99.90
64062;DHT22;50308;47.438;-1.528;2023-12-14T05:53:17;9.40;99.90
64062;DHT22;50308;47.438;-1.528;2023-12-14T05:55:43;9.40;99.90
64062;DHT22;50308;47.438;-1.528;2023-12-14T05:58:08;9.40;99.90
64062;DHT22;50308;47.438;-1.528;2023-12-14T06:00:35;9.40;99.90
64062;DHT22;50308;47.438;-1.528;2023-12-14T06:03:01;9.40;99.90
64062;DHT22;50308;47.438;-1.528;2023-12-14T06:05:27;9.40;99.90
64062;DHT22;50308;47.438;-1.528;2023-12-14T06:07:53;9.40;99.90
64062;DHT22;50308;47.438;-1.528;2023-12-14T06:10:19;9.40;99.90
64062;DHT22;50308;47.438;-1.528;2023-12-14T06:12:45;9.40;99.90
64062;DHT22;50308;47.438;-1.528;2023-12-14T06:15:10;9.40;99.90
64062;DHT22;50308;47.438;-1.528;2023-12-14T06:17:36;9.50;99.90
64062;DHT22;50308;47.438;-1.528;2023-12-14T06:20:05;9.50;99.90
64062;DHT22;50308;47.438;-1.528;2023-12-14T06:22:32;9.50;99.90
64062;DHT22;50308;47.438;-1.528;2023-12-14T06:24:58;9.50;99.90
64062;DHT22;50308;47.438;-1.528;2023-12-14T06:27:24;9.50;99.90
64062;DHT22;50308;47.438;-1.528;2023-12-14T06:29:52;9.50;99.90
64062;DHT22;50308;47.438;-1.528;2023-12-14T06:32:18;9.50;99.90
64062;DHT22;50308;47.438;-1.528;2023-12-14T06:34:43;9.50;99.90
64062;DHT22;50308;47.438;-1.528;2023-12-14T06:37:09;9.60;99.90
64062;DHT22;50308;47.438;-1.528;2023-12-14T06:39:36;9.50;99.90
64062;DHT22;50308;47.438;-1.528;2023-12-14T06:42:01;9.60;99.90
64062;DHT22;50308;47.438;-1.528;2023-12-14T06:44:27;9.60;99.90
64062;DHT22;50308;47.438;-1.528;2023-12-14T06:46:53;9.50;99.90
64062;DHT22;50308;47.438;-1.528;2023-12-14T06:49:20;9.60;99.90
64062;DHT22;50308;47.438;-1.528;2023-12-14T06:51:46;9.60;99.90
64062;DHT22;50308;47.438;-1.528;2023-12-14T06:54:12;9.50;99.90
64062;DHT22;50308;47.438;-1.528;2023-12-14T06:56:37;9.50;99.90
64062;DHT22;50308;47.438;-1.528;2023-12-14T06:59:03;9.60;99.90
64062;DHT22;50308;47.438;-1.528;2023-12-14T07:01:29;9.60;99.90
64062;DHT22;50308;47.438;-1.528;2023-12-14T07:03:54;9.60;99.90
64062;DHT22;50308;47.438;-1.528;2023-12-14T07:06:20;9.60;99.90
64062;DHT22;50308;47.438;-1.528;2023-12-14T07:08:46;9.60;99.90
64062;DHT22;50308;47.438;-1.528;2023-12-14T07:11:13;9.60;99.90
64062;DHT22;50308;47.438;-1.528;2023-12-14T07:13:39;9.60;99.90
64062;DHT22;50308;47.438;-1.528;2023-12-14T07:16:06;9.60;99.90
64062;DHT22;50308;47.438;-1.528;2023-12-14T07:18:36;9.60;99.90
64062;DHT22;50308;47.438;-1.528;2023-12-14T07:21:03;9.60;99.90
64062;DHT22;50308;47.438;-1.528;2023-12-14T07:23:28;9.70;99.90
64062;DHT22;50308;47.438;-1.528;2023-12-14T07:25:54;9.70;99.90
64062;DHT22;50308;47.438;-1.528;2023-12-14T07:28:20;9.70;99.90
64062;DHT22;50308;47.438;-1.528;2023-12-14T07:30:46;9.70;99.90
64062;DHT22;50308;47.438;-1.528;2023-12-14T07:33:12;9.70;99.90
64062;DHT22;50308;47.438;-1.528;2023-12-14T07:35:38;9.60;99.90
64062;DHT22;50308;47.438;-1.528;2023-12-14T07:38:04;9.70;99.90
64062;DHT22;50308;47.438;-1.528;2023-12-14T07:40:29;9.70;99.90
64062;DHT22;50308;47.438;-1.528;2023-12-14T07:42:55;9.60;99.90
64062;DHT22;50308;47.438;-1.528;2023-12-14T07:45:20;9.60;99.90
64062;DHT22;50308;47.438;-1.528;2023-12-14T07:47:46;9.70;99.90
64062;DHT22;50308;47.438;-1.528;2023-12-14T07:50:12;9.60;99.90
64062;DHT22;50308;47.438;-1.528;2023-12-14T07:52:38;9.70;99.90
64062;DHT22;50308;47.438;-1.528;2023-12-14T07:55:05;9.70;99.90
64062;DHT22;50308;47.438;-1.528;2023-12-14T07:57:31;9.70;99.90
64062;DHT22;50308;47.438;-1.528;2023-12-14T07:59:57;9.70;99.90
64062;DHT22;50308;47.438;-1.528;2023-12-14T08:02:23;9.70;99.90
64062;DHT22;50308;47.438;-1.528;2023-12-14T08:04:48;9.70;99.90
64062;DHT22;50308;47.438;-1.528;2023-12-14T08:07:14;9.70;99.90
64062;DHT22;50308;47.438;-1.528;2023-12-14T08:09:40;9.70;99.90
64062;DHT22;50308;47.438;-1.528;2023-12-14T08:12:06;9.70;99.90
64062;DHT22;50308;47.438;-1.528;2023-12-14T08:14:32;9.70;99.90
64062;DHT22;50308;47.438;-1.528;2023-12-14T08:16:59;9.70;99.90
64062;DHT22;50308;47.438;-1.528;2023-12-14T08:19:25;9.70;99.90
64062;DHT22;50308;47.438;-1.528;2023-12-14T08:21:51;9.70;99.90
64062;DHT22;50308;47.438;-1.528;2023-12-14T08:24:17;9.70;99.90
64062;DHT22;50308;47.438;-1.528;2023-12-14T08:26:42;9.70;99.90
64062;DHT22;50308;47.438;-1.528;2023-12-14T08:29:08;9.70;99.90
64062;DHT22;50308;47.438;-1.528;2023-12-14T08:31:34;9.70;99.90
64062;DHT22;50308;47.438;-1.528;2023-12-14T08:34:00;9.70;99.90
64062;DHT22;50308;47.438;-1.528;2023-12-14T08:36:26;9.70;99.90
64062;DHT22;50308;47.438;-1.528;2023-12-14T08:38:52;9.70;99.90
64062;DHT22;50308;47.438;-1.528;2023-12-14T08:41:17;9.70;99.90
64062;DHT22;50308;47.438;-1.528;2023-12-14T08:43:43;9.70;99.90
64062;DHT22;50308;47.438;-1.528;2023-12-14T08:46:09;9.70;99.90
64062;DHT22;50308;47.438;-1.528;2023-12-14T08:48:38;9.80;99.90
64062;DHT22;50308;47.438;-1.528;2023-12-14T08:51:04;9.80;99.90
64062;DHT22;50308;47.438;-1.528;2023-12-14T08:53:30;9.80;99.90
64062;DHT22;50308;47.438;-1.528;2023-12-14T08:55:55;9.80;99.90
64062;DHT22;50308;47.438;-1.528;2023-12-14T08:58:21;9.80;99.90
64062;DHT22;50308;47.438;-1.528;2023-12-14T09:00:47;9.80;99.90
64062;DHT22;50308;47.438;-1.528;2023-12-14T09:03:17;9.80;99.90
64062;DHT22;50308;47.438;-1.528;2023-12-14T09:05:42;9.80;99.90
64062;DHT22;50308;47.438;-1.528;2023-12-14T09:08:08;9.90;99.90
64062;DHT22;50308;47.438;-1.528;2023-12-14T09:10:34;9.90;99.90
64062;DHT22;50308;47.438;-1.528;2023-12-14T09:13:00;9.90;99.90
64062;DHT22;50308;47.438;-1.528;2023-12-14T09:15:30;9.90;99.90
64062;DHT22;50308;47.438;-1.528;2023-12-14T09:17:56;9.90;99.90
64062;DHT22;50308;47.438;-1.528;2023-12-14T09:20:22;9.90;99.90
64062;DHT22;50308;47.438;-1.528;2023-12-14T09:22:47;10.00;99.90
64062;DHT22;50308;47.438;-1.528;2023-12-14T09:25:13;10.00;99.90
64062;DHT22;50308;47.438;-1.528;2023-12-14T09:27:39;10.00;99.90
64062;DHT22;50308;47.438;-1.528;2023-12-14T09:30:05;10.00;99.90
64062;DHT22;50308;47.438;-1.528;2023-12-14T09:32:31;10.00;99.90
64062;DHT22;50308;47.438;-1.528;2023-12-14T09:34:56;10.00;99.90
64062;DHT22;50308;47.438;-1.528;2023-12-14T09:37:22;10.00;99.90
64062;DHT22;50308;47.438;-1.528;2023-12-14T09:39:48;10.10;99.90
64062;DHT22;50308;47.438;-1.528;2023-12-14T09:42:18;10.10;99.90
64062;DHT22;50308;47.438;-1.528;2023-12-14T09:44:45;10.10;99.90
64062;DHT22;50308;47.438;-1.528;2023-12-14T09:47:11;10.10;99.90
64062;DHT22;50308;47.438;-1.528;2023-12-14T09:49:37;10.10;99.90
64062;DHT22;50308;47.438;-1.528;2023-12-14T09:52:03;10.10;99.90
64062;DHT22;50308;47.438;-1.528;2023-12-14T09:54:29;10.10;99.90
64062;DHT22;50308;47.438;-1.528;2023-12-14T09:56:55;10.20;99.90
64062;DHT22;50308;47.438;-1.528;2023-12-14T09:59:21;10.20;99.90
64062;DHT22;50308;47.438;-1.528;2023-12-14T10:01:47;10.20;99.90
64062;DHT22;50308;47.438;-1.528;2023-12-14T10:04:14;10.20;99.90
64062;DHT22;50308;47.438;-1.528;2023-12-14T10:06:42;10.20;99.90
64062;DHT22;50308;47.438;-1.528;2023-12-14T10:09:09;10.30;99.90
64062;DHT22;50308;47.438;-1.528;2023-12-14T10:11:36;10.30;99.90
64062;DHT22;50308;47.438;-1.528;2023-12-14T10:14:24;10.30;99.90
64062;DHT22;50308;47.438;-1.528;2023-12-14T10:16:51;10.30;99.90
64062;DHT22;50308;47.438;-1.528;2023-12-14T10:19:18;10.30;99.90
64062;DHT22;50308;47.438;-1.528;2023-12-14T10:21:46;10.40;99.90
64062;DHT22;50308;47.438;-1.528;2023-12-14T10:24:12;10.40;99.90
64062;DHT22;50308;47.438;-1.528;2023-12-14T10:26:38;10.40;99.90
64062;DHT22;50308;47.438;-1.528;2023-12-14T10:29:04;10.40;99.90
64062;DHT22;50308;47.438;-1.528;2023-12-14T10:31:33;10.50;99.90
64062;DHT22;50308;47.438;-1.528;2023-12-14T10:34:03;10.50;99.90
64062;DHT22;50308;47.438;-1.528;2023-12-14T10:36:29;10.50;99.90
64062;DHT22;50308;47.438;-1.528;2023-12-14T10:38:57;10.50;99.90
64062;DHT22;50308;47.438;-1.528;2023-12-14T10:41:24;10.50;99.90
64062;DHT22;50308;47.438;-1.528;2023-12-14T10:43:55;10.50;99.90
64062;DHT22;50308;47.438;-1.528;2023-12-14T10:46:21;10.50;99.90
64062;DHT22;50308;47.438;-1.528;2023-12-14T10:48:50;10.60;99.90
64062;DHT22;50308;47.438;-1.528;2023-12-14T10:51:18;10.60;99.90
64062;DHT22;50308;47.438;-1.528;2023-12-14T10:53:45;10.60;99.90
64062;DHT22;50308;47.438;-1.528;2023-12-14T10:56:15;10.60;99.90
64062;DHT22;50308;47.438;-1.528;2023-12-14T10:58:46;10.70;99.90
64062;DHT22;50308;47.438;-1.528;2023-12-14T11:01:13;10.70;99.90
64062;DHT22;50308;47.438;-1.528;2023-12-14T11:03:40;10.70;99.90
64062;DHT22;50308;47.438;-1.528;2023-12-14T11:08:54;10.70;99.90
64062;DHT22;50308;47.438;-1.528;2023-12-14T11:11:21;10.70;99.90
64062;DHT22;50308;47.438;-1.528;2023-12-14T11:13:53;10.80;99.90
64062;DHT22;50308;47.438;-1.528;2023-12-14T11:16:23;10.80;99.90
64062;DHT22;50308;47.438;-1.528;2023-12-14T11:18:49;10.90;99.90
64062;DHT22;50308;47.438;-1.528;2023-12-14T11:21:34;10.90;99.90
64062;DHT22;50308;47.438;-1.528;2023-12-14T11:24:01;10.90;99.90
64062;DHT22;50308;47.438;-1.528;2023-12-14T11:26:26;10.90;99.90
64062;DHT22;50308;47.438;-1.528;2023-12-14T11:28:54;10.90;99.90
64062;DHT22;50308;47.438;-1.528;2023-12-14T11:31:19;11.00;99.90
64062;DHT22;50308;47.438;-1.528;2023-12-14T11:33:46;11.00;99.90
64062;DHT22;50308;47.438;-1.528;2023-12-14T11:36:13;11.00;99.90
64062;DHT22;50308;47.438;-1.528;2023-12-14T11:38:39;11.00;99.90
64062;DHT22;50308;47.438;-1.528;2023-12-14T11:41:05;11.00;99.90
64062;DHT22;50308;47.438;-1.528;2023-12-14T11:43:41;11.00;99.90
64062;DHT22;50308;47.438;-1.528;2023-12-14T11:46:07;11.00;99.90
64062;DHT22;50308;47.438;-1.528;2023-12-14T11:48:33;11.00;99.90
64062;DHT22;50308;47.438;-1.528;2023-12-14T11:50:59;11.00;99.90
64062;DHT22;50308;47.438;-1.528;2023-12-14T11:53:26;11.00;99.90
64062;DHT22;50308;47.438;-1.528;2023-12-14T11:55:52;11.00;99.90
64062;DHT22;50308;47.438;-1.528;2023-12-14T11:58:18;11.00;99.90
64062;DHT22;50308;47.438;-1.528;2023-12-14T12:00:43;11.10;99.90
64062;DHT22;50308;47.438;-1.528;2023-12-14T12:03:19;11.10;99.90
64062;DHT22;50308;47.438;-1.528;2023-12-14T12:05:50;11.10;99.90
64062;DHT22;50308;47.438;-1.528;2023-12-14T12:08:19;11.10;99.90
64062;DHT22;50308;47.438;-1.528;2023-12-14T12:10:45;11.10;99.90
64062;DHT22;50308;47.438;-1.528;2023-12-14T12:13:16;11.10;99.90
64062;DHT22;50308;47.438;-1.528;2023-12-14T12:15:42;11.10;99.90
64062;DHT22;50308;47.438;-1.528;2023-12-14T12:18:10;11.10;99.90
64062;DHT22;50308;47.438;-1.528;2023-12-14T12:20:36;11.20;99.90
64062;DHT22;50308;47.438;-1.528;2023-12-14T12:23:02;11.20;99.90
64062;DHT22;50308;47.438;-1.528;2023-12-14T12:25:29;11.20;99.90
64062;DHT22;50308;47.438;-1.528;2023-12-14T12:27:58;11.20;99.90
64062;DHT22;50308;47.438;-1.528;2023-12-14T12:30:24;11.30;99.90
64062;DHT22;50308;47.438;-1.528;2023-12-14T12:32:50;11.30;99.90
64062;DHT22;50308;47.438;-1.528;2023-12-14T12:35:22;11.30;99.90
64062;DHT22;50308;47.438;-1.528;2023-12-14T12:37:48;11.30;99.90
64062;DHT22;50308;47.438;-1.528;2023-12-14T12:40:22;11.30;99.90
64062;DHT22;50308;47.438;-1.528;2023-12-14T12:42:49;11.40;99.90
64062;DHT22;50308;47.438;-1.528;2023-12-14T12:45:15;11.40;99.90
64062;DHT22;50308;47.438;-1.528;2023-12-14T12:47:43;11.40;99.90
64062;DHT22;50308;47.438;-1.528;2023-12-14T12:50:09;11.40;99.90
64062;DHT22;50308;47.438;-1.528;2023-12-14T12:52:35;11.40;99.90
64062;DHT22;50308;47.438;-1.528;2023-12-14T12:55:01;11.40;99.90
64062;DHT22;50308;47.438;-1.528;2023-12-14T12:57:27;11.50;99.90
64062;DHT22;50308;47.438;-1.528;2023-12-14T12:59:53;11.50;99.90
64062;DHT22;50308;47.438;-1.528;2023-12-14T13:02:18;11.50;99.90
64062;DHT22;50308;47.438;-1.528;2023-12-14T13:04:44;11.60;99.90
64062;DHT22;50308;47.438;-1.528;2023-12-14T13:07:10;11.50;99.90
64062;DHT22;50308;47.438;-1.528;2023-12-14T13:09:37;11.50;99.90
64062;DHT22;50308;47.438;-1.528;2023-12-14T13:12:04;11.60;99.90
64062;DHT22;50308;47.438;-1.528;2023-12-14T13:14:30;11.60;99.90
64062;DHT22;50308;47.438;-1.528;2023-12-14T13:16:56;11.60;99.90
64062;DHT22;50308;47.438;-1.528;2023-12-14T13:19:23;11.60;99.90
64062;DHT22;50308;47.438;-1.528;2023-12-14T13:21:49;11.60;99.90
64062;DHT22;50308;47.438;-1.528;2023-12-14T13:24:15;11.60;99.90
64062;DHT22;50308;47.438;-1.528;2023-12-14T13:26:41;11.60;99.90
64062;DHT22;50308;47.438;-1.528;2023-12-14T13:29:06;11.60;99.90
64062;DHT22;50308;47.438;-1.528;2023-12-14T13:31:32;11.70;99.90
64062;DHT22;50308;47.438;-1.528;2023-12-14T13:33:57;11.70;99.90
64062;DHT22;50308;47.438;-1.528;2023-12-14T13:36:23;11.70;99.90
64062;DHT22;50308;47.438;-1.528;2023-12-14T13:38:49;11.70;99.90
64062;DHT22;50308;47.438;-1.528;2023-12-14T13:41:15;11.70;99.90
64062;DHT22;50308;47.438;-1.528;2023-12-14T13:43:40;11.70;99.90
64062;DHT22;50308;47.438;-1.528;2023-12-14T13:46:06;11.70;99.90
64062;DHT22;50308;47.438;-1.528;2023-12-14T13:48:31;11.70;99.90
64062;DHT22;50308;47.438;-1.528;2023-12-14T13:50:57;11.70;99.90
64062;DHT22;50308;47.438;-1.528;2023-12-14T13:53:23;11.70;99.90
64062;DHT22;50308;47.438;-1.528;2023-12-14T13:55:49;11.70;99.90
64062;DHT22;50308;47.438;-1.528;2023-12-14T13:58:15;11.70;99.90
64062;DHT22;50308;47.438;-1.528;2023-12-14T14:00:41;11.70;99.90
64062;DHT22;50308;47.438;-1.528;2023-12-14T14:03:07;11.80;99.90
64062;DHT22;50308;47.438;-1.528;2023-12-14T14:05:33;11.80;99.90
64062;DHT22;50308;47.438;-1.528;2023-12-14T14:07:59;11.80;99.90
64062;DHT22;50308;47.438;-1.528;2023-12-14T14:10:25;11.80;99.90
64062;DHT22;50308;47.438;-1.528;2023-12-14T14:12:51;11.80;99.90
64062;DHT22;50308;47.438;-1.528;2023-12-14T14:15:17;11.80;99.90
64062;DHT22;50308;47.438;-1.528;2023-12-14T14:17:43;11.80;99.90
64062;DHT22;50308;47.438;-1.528;2023-12-14T14:20:09;11.90;99.90
64062;DHT22;50308;47.438;-1.528;2023-12-14T14:22:38;11.90;99.90
64062;DHT22;50308;47.438;-1.528;2023-12-14T14:25:05;11.90;99.90
64062;DHT22;50308;47.438;-1.528;2023-12-14T14:27:34;11.90;99.90
64062;DHT22;50308;47.438;-1.528;2023-12-14T14:30:00;11.90;99.90
64062;DHT22;50308;47.438;-1.528;2023-12-14T14:32:26;11.90;99.90
64062;DHT22;50308;47.438;-1.528;2023-12-14T14:34:51;11.90;99.90
64062;DHT22;50308;47.438;-1.528;2023-12-14T14:37:18;11.90;99.90
64062;DHT22;50308;47.438;-1.528;2023-12-14T14:39:44;12.00;99.90
64062;DHT22;50308;47.438;-1.528;2023-12-14T14:42:10;11.90;99.90
64062;DHT22;50308;47.438;-1.528;2023-12-14T14:44:35;12.00;99.90
64062;DHT22;50308;47.438;-1.528;2023-12-14T14:47:02;11.90;99.90
64062;DHT22;50308;47.438;-1.528;2023-12-14T14:49:28;11.90;99.90
64062;DHT22;50308;47.438;-1.528;2023-12-14T14:51:54;11.90;99.90
64062;DHT22;50308;47.438;-1.528;2023-12-14T14:54:20;12.00;99.90
64062;DHT22;50308;47.438;-1.528;2023-12-14T14:56:45;12.00;99.90
64062;DHT22;50308;47.438;-1.528;2023-12-14T14:59:11;12.00;99.90
64062;DHT22;50308;47.438;-1.528;2023-12-14T15:01:41;12.00;99.90
64062;DHT22;50308;47.438;-1.528;2023-12-14T15:04:07;12.00;99.90
64062;DHT22;50308;47.438;-1.528;2023-12-14T15:06:32;12.00;99.90
64062;DHT22;50308;47.438;-1.528;2023-12-14T15:08:59;12.00;99.90
64062;DHT22;50308;47.438;-1.528;2023-12-14T15:11:25;12.00;99.90
64062;DHT22;50308;47.438;-1.528;2023-12-14T15:13:51;12.00;99.90
64062;DHT22;50308;47.438;-1.528;2023-12-14T15:16:17;12.00;99.90